首页
METAR-TAF:

METAR-TAF

机场 :

突尼斯-迦太基国际机场

突尼斯, 突尼斯

纬度: 36-50N, 经度: 010-14E, 海拔: 3米

当前天气观测

该预报发布于33分钟前的06:00 UTC
风速3节,风向,在北转东北南转南东之间变化
温度 24°C
湿度 83%
气压 1023 hPa
能见度10公里或以上
少量云层高于3300英尺

METAR: DTTA 150600Z 09003KT 030V150 9999 FEW033 24/21 Q1023

时间: 07:33 (06:33 UTC)

预报

该预报发布于1小时和33分钟前的05:00 UTC
预报有效从15日的 06点(UTC)到 16日的 06点(UTC)
风速6节,风向
能见度10公里或以上
少量云层高于2600英尺
成为
从 15日的 12点(UTC)到 15日的 14点(UTC)
风速13节,风向
成为
从 15日的 20点(UTC)到 15日的 22点(UTC)
风速3节,风向南转南东

TAF: DTTA 150500Z 1506/1606 10006KT 9999 FEW026 BECMG 1512/1514 08013KT BECMG 1520/1522 16003KT

超过4000个机场的气象观测和天气预报(METAR&TAF报告)。

可查询的气象台以黄色和红色小点在地图上表示。

将鼠标移到小点上方,可查看气象台名称。

然后点击查看天气观测和预报。

如需切换地图:点击带黑十字的绿色按钮放大地图;点击带横线的绿色按钮缩小地图;或者点击绿色箭头查看邻近地区的地图。


METAR-TAF: